Time;durP1;ratioP1;P1;durP2;ratioP2;P2;SDS_P1;SDS_P2;PMS_P1;PMS_P2;Temp;Humidity;BMP_temperature;BMP_pressure;BME280_temperature;BME280_humidity;BME280_pressure;Samples;Min_cycle;Max_cycle;Signal;HPM_P1;HPM_P2
2023/11/14 00:00:59;;;;;;;25.97;4.60;;;;;;;9.90;100.00;100424.22;5016163;28;20443;-73
2023/11/14 00:03:28;;;;;;;27.53;6.33;;;;;;;10.57;100.00;100554.59;5017081;28;20667;-73
2023/11/14 00:05:54;;;;;;;32.70;5.93;;;;;;;10.31;100.00;100503.66;5018404;28;20188;-74
2023/11/14 00:08:20;;;;;;;24.80;5.23;;;;;;;10.52;100.00;100530.25;5019704;28;20455;-75
2023/11/14 00:10:46;;;;;;;36.73;6.53;;;;;;;10.66;100.00;100557.91;5015889;28;20447;-73
2023/11/14 00:13:12;;;;;;;24.23;4.47;;;;;;;10.66;100.00;100547.19;5015198;28;20274;-73
2023/11/14 00:15:37;;;;;;;20.13;4.20;;;;;;;10.58;100.00;100542.03;5019615;28;20454;-74
2023/11/14 00:18:03;;;;;;;26.33;5.37;;;;;;;10.70;100.00;100566.38;5018960;28;20197;-73
2023/11/14 00:20:29;;;;;;;24.43;5.73;;;;;;;10.71;100.00;100570.72;5013642;28;20197;-73
2023/11/14 00:22:54;;;;;;;32.73;6.30;;;;;;;10.33;100.00;100507.78;5015144;28;20213;-74
2023/11/14 00:25:19;;;;;;;27.70;5.43;;;;;;;10.59;100.00;100557.94;5013857;28;20188;-72
2023/11/14 00:27:45;;;;;;;31.53;6.30;;;;;;;10.36;100.00;100528.81;5016944;28;20188;-73
2023/11/14 00:30:11;;;;;;;37.10;6.43;;;;;;;10.60;100.00;100554.19;5015416;28;20193;-74
2023/11/14 00:32:36;;;;;;;23.57;5.07;;;;;;;10.67;100.00;100558.72;5015387;28;20215;-75
2023/11/14 00:35:03;;;;;;;40.73;6.43;;;;;;;10.22;100.00;100468.16;5017787;28;20470;-73
2023/11/14 00:37:28;;;;;;;33.50;6.30;;;;;;;10.36;100.00;100503.88;5014227;28;20192;-75
2023/11/14 00:39:54;;;;;;;36.57;7.00;;;;;;;10.50;100.00;100532.34;5019375;28;20448;-73
2023/11/14 00:42:19;;;;;;;31.30;5.33;;;;;;;10.27;100.00;100534.56;5015373;28;21253;-73
2023/11/14 00:44:45;;;;;;;34.87;6.43;;;;;;;10.56;100.00;100561.00;5014511;28;26591;-73
2023/11/14 00:47:10;;;;;;;25.00;5.07;;;;;;;10.57;100.00;100551.94;5013970;28;20207;-73
2023/11/14 00:49:36;;;;;;;28.37;5.30;;;;;;;10.51;100.00;100541.22;5012255;28;20210;-74
2023/11/14 00:52:02;;;;;;;31.73;5.40;;;;;;;10.83;100.00;100590.53;5018631;28;20675;-76
2023/11/14 00:54:31;;;;;;;26.57;5.83;;;;;;;10.81;100.00;100560.38;5010418;28;20230;-74
2023/11/14 00:56:57;;;;;;;26.90;5.90;;;;;;;10.73;100.00;100557.91;5018907;28;20177;-74
2023/11/14 00:59:22;;;;;;;29.80;6.30;;;;;;;10.61;100.00;100539.75;5013935;28;20471;-73
2023/11/14 01:01:48;;;;;;;33.43;5.63;;;;;;;10.75;100.00;100537.91;5012148;28;20547;-74
2023/11/14 01:04:17;;;;;;;33.07;5.80;;;;;;;10.76;100.00;100544.09;5010343;28;20192;-73
2023/11/14 01:06:42;;;;;;;30.10;6.13;;;;;;;10.48;100.00;100504.91;5011436;28;20211;-74
2023/11/14 01:09:09;;;;;;;24.73;5.30;;;;;;;10.42;100.00;100483.47;5015866;28;20870;-73
2023/11/14 01:11:35;;;;;;;29.97;6.97;;;;;;;10.68;100.00;100525.53;5010869;28;20207;-72
2023/11/14 01:14:01;;;;;;;22.07;5.47;;;;;;;10.65;100.00;100516.03;5013393;28;20855;-73
2023/11/14 01:16:26;;;;;;;26.30;5.43;;;;;;;10.57;100.00;100482.19;5012329;28;20463;-75
2023/11/14 01:18:53;;;;;;;28.63;5.70;;;;;;;10.69;100.00;100503.84;5009702;28;20192;-74
2023/11/14 01:21:19;;;;;;;23.07;5.23;;;;;;;10.57;100.00;100478.69;5013097;28;20258;-73
2023/11/14 01:23:45;;;;;;;27.07;5.33;;;;;;;10.71;100.00;100458.88;5015179;28;20439;-75
2023/11/14 01:26:10;;;;;;;29.60;5.77;;;;;;;10.51;100.00;100444.66;5014209;28;20195;-72
2023/11/14 01:28:35;;;;;;;27.00;5.23;;;;;;;10.84;100.00;100468.75;5014247;28;20188;-74
2023/11/14 01:31:01;;;;;;;29.63;5.90;;;;;;;10.84;100.00;100464.19;5014230;28;20188;-72
2023/11/14 01:33:26;;;;;;;21.17;4.70;;;;;;;10.51;100.00;100417.84;5015248;28;20216;-73
2023/11/14 01:35:52;;;;;;;21.73;4.57;;;;;;;10.51;100.00;100416.00;5015816;28;20197;-73
2023/11/14 01:38:18;;;;;;;17.07;3.60;;;;;;;10.75;100.00;100446.69;5013506;28;20189;-73
2023/11/14 01:40:49;;;;;;;13.93;3.50;;;;;;;10.16;100.00;100337.66;5014734;28;20185;-74
2023/11/14 01:43:14;;;;;;;17.93;3.50;;;;;;;10.61;100.00;100386.06;5017026;28;20459;-73
2023/11/14 01:45:39;;;;;;;21.10;3.67;;;;;;;10.76;100.00;100361.66;5015334;28;21157;-73
2023/11/14 01:48:05;;;;;;;30.17;6.27;;;;;;;10.84;100.00;100383.72;5011659;28;20193;-73
2023/11/14 01:50:31;;;;;;;40.93;6.50;;;;;;;10.88;100.00;100368.03;5016672;28;20609;-72
2023/11/14 01:52:57;;;;;;;25.60;5.67;;;;;;;10.69;100.00;100342.91;5015732;28;20250;-76
2023/11/14 01:55:25;;;;;;;23.20;5.10;;;;;;;10.78;100.00;100348.88;5012706;28;20801;-74
2023/11/14 01:57:52;;;;;;;31.37;5.40;;;;;;;10.75;100.00;100339.38;5018233;28;20625;-73
2023/11/14 02:00:18;;;;;;;25.10;6.07;;;;;;;10.96;100.00;100351.69;5016124;28;20501;-73
2023/11/14 02:02:44;;;;;;;29.60;6.20;;;;;;;10.80;100.00;100318.13;5017079;28;20475;-73
2023/11/14 02:05:10;;;;;;;28.53;5.77;;;;;;;11.01;100.00;100361.78;5017430;28;20443;-72
2023/11/14 02:07:37;;;;;;;34.27;5.70;;;;;;;10.84;100.00;100322.00;5015055;28;20189;-74
2023/11/14 02:10:02;;;;;;;25.70;5.33;;;;;;;10.76;100.00;100319.59;5018226;28;20434;-73
2023/11/14 02:12:28;;;;;;;23.37;4.77;;;;;;;10.94;100.00;100329.63;5016810;28;20560;-74
2023/11/14 02:14:53;;;;;;;22.50;4.53;;;;;;;11.00;100.00;100319.88;5019368;28;20789;-75
2023/11/14 02:17:20;;;;;;;19.13;4.37;;;;;;;10.88;100.00;100311.69;5021401;28;20212;-73
2023/11/14 02:19:45;;;;;;;27.73;5.60;;;;;;;11.00;100.00;100320.72;5021924;28;20275;-72
2023/11/14 02:22:11;;;;;;;30.07;7.17;;;;;;;11.00;100.00;100320.72;5019851;28;20486;-74
2023/11/14 02:24:40;;;;;;;20.23;4.77;;;;;;;10.98;100.00;100309.34;5022427;28;20181;-74
2023/11/14 02:27:07;;;;;;;25.57;5.50;;;;;;;11.00;100.00;100323.41;5018394;28;20201;-73
2023/11/14 02:29:35;;;;;;;28.47;6.13;;;;;;;10.63;100.00;100256.06;5017466;28;20442;-74
2023/11/14 02:32:00;;;;;;;23.00;5.63;;;;;;;10.29;100.00;100205.47;5018438;28;20489;-75
2023/11/14 02:34:26;;;;;;;20.93;4.80;;;;;;;10.71;100.00;100257.69;5012167;28;20520;-75
2023/11/14 02:36:51;;;;;;;25.27;5.57;;;;;;;10.84;100.00;100315.81;5018654;28;20699;-72
2023/11/14 02:39:17;;;;;;;32.50;5.57;;;;;;;10.67;100.00;100279.78;5020621;28;20199;-73
2023/11/14 02:41:46;;;;;;;23.17;5.10;;;;;;;11.05;100.00;100339.69;5019624;28;20204;-73
2023/11/14 02:44:13;;;;;;;23.67;5.30;;;;;;;10.87;100.00;100336.84;5018884;28;20191;-73
2023/11/14 02:46:38;;;;;;;26.43;4.40;;;;;;;10.66;100.00;100300.44;5016626;28;20980;-73
2023/11/14 02:49:42;;;;;;;32.00;6.80;;;;;;;10.94;100.00;100351.09;5020856;28;20445;-75
2023/11/14 02:52:07;;;;;;;26.27;4.77;;;;;;;10.77;100.00;100302.44;5003219;28;20216;-73
2023/11/14 02:54:34;;;;;;;36.27;5.30;;;;;;;10.91;100.00;100324.69;5017318;28;20472;-74
2023/11/14 02:57:00;;;;;;;24.20;4.73;;;;;;;10.92;100.00;100349.66;5022040;28;20828;-74
2023/11/14 02:59:25;;;;;;;27.93;5.60;;;;;;;10.89;100.00;100334.78;5016952;28;20228;-73
2023/11/14 03:01:51;;;;;;;25.70;4.93;;;;;;;10.95;100.00;100358.09;5018053;28;20223;-73
2023/11/14 03:04:16;;;;;;;27.47;4.67;;;;;;;10.97;100.00;100344.47;5022618;28;20604;-73
2023/11/14 03:06:42;;;;;;;21.83;5.93;;;;;;;10.93;100.00;100380.81;5019448;28;20196;-73
2023/11/14 03:09:07;;;;;;;31.43;5.53;;;;;;;11.02;100.00;100366.09;5020017;28;20196;-72
2023/11/14 03:11:33;;;;;;;41.43;6.13;;;;;;;11.03;100.00;100365.91;5015535;28;20208;-73
2023/11/14 03:13:58;;;;;;;23.53;4.07;;;;;;;11.05;100.00;100382.63;5008656;28;20212;-74
2023/11/14 03:16:24;;;;;;;35.77;7.17;;;;;;;10.91;100.00;100351.50;5016706;28;20200;-74
2023/11/14 03:18:49;;;;;;;24.50;4.30;;;;;;;10.80;100.00;100323.47;5015720;28;20184;-74
2023/11/14 03:21:19;;;;;;;25.83;5.40;;;;;;;10.90;100.00;100360.56;5016029;28;20213;-74
2023/11/14 03:23:45;;;;;;;23.80;5.37;;;;;;;11.10;100.00;100398.06;5016887;28;20210;-73
2023/11/14 03:26:11;;;;;;;26.10;4.80;;;;;;;11.14;100.00;100366.25;5017272;28;20439;-71
2023/11/14 03:28:36;;;;;;;20.63;4.70;;;;;;;11.12;100.00;100387.97;5015428;28;20786;-72
2023/11/14 03:31:01;;;;;;;27.80;4.60;;;;;;;11.09;100.00;100361.53;5017347;28;20201;-72
2023/11/14 03:33:27;;;;;;;31.73;6.17;;;;;;;11.04;100.00;100369.41;5016281;28;20212;-73
2023/11/14 03:35:52;;;;;;;24.50;5.33;;;;;;;10.73;100.00;100330.75;5017405;28;20184;-73
2023/11/14 03:38:18;;;;;;;22.60;4.93;;;;;;;10.67;100.00;100334.25;5020313;28;20192;-74
2023/11/14 03:40:43;;;;;;;28.87;5.37;;;;;;;10.75;100.00;100338.56;5017142;28;20712;-72
2023/11/14 03:43:08;;;;;;;25.20;5.60;;;;;;;10.90;100.00;100374.00;5018964;28;20181;-73
2023/11/14 03:45:34;;;;;;;23.77;4.50;;;;;;;10.78;100.00;100365.78;5019133;28;20193;-73
2023/11/14 03:48:00;;;;;;;28.90;5.30;;;;;;;10.78;100.00;100371.16;5013995;28;20220;-73
2023/11/14 03:50:25;;;;;;;19.13;4.17;;;;;;;10.99;100.00;100410.31;5014877;28;20676;-75
2023/11/14 03:52:50;;;;;;;25.23;4.43;;;;;;;11.04;100.00;100406.97;5017085;28;20212;-73
2023/11/14 03:55:16;;;;;;;23.87;5.23;;;;;;;10.70;100.00;100362.50;5018149;28;20184;-74
2023/11/14 03:57:41;;;;;;;30.20;4.60;;;;;;;10.79;100.00;100388.91;5019842;28;20818;-74
2023/11/14 04:00:09;;;;;;;26.23;5.43;;;;;;;11.11;100.00;100425.72;5016906;28;20199;-73
2023/11/14 04:02:37;;;;;;;19.63;5.00;;;;;;;10.98;100.00;100419.38;5018039;28;20204;-74
2023/11/14 04:05:04;;;;;;;31.33;6.17;;;;;;;11.03;100.00;100418.75;5017053;28;20938;-73
2023/11/14 04:07:30;;;;;;;29.93;6.90;;;;;;;10.92;100.00;100412.19;5016584;28;20485;-72
2023/11/14 04:09:55;;;;;;;19.97;3.97;;;;;;;10.81;100.00;100386.00;5022107;28;20555;-74
2023/11/14 04:12:21;;;;;;;34.47;5.20;;;;;;;10.73;100.00;100384.41;5018290;28;20709;-73
2023/11/14 04:14:47;;;;;;;35.87;5.73;;;;;;;11.09;100.00;100440.19;5019228;28;20215;-75
2023/11/14 04:17:13;;;;;;;17.80;4.23;;;;;;;11.09;100.00;100455.47;5018950;28;20192;-73
2023/11/14 04:19:38;;;;;;;26.03;4.93;;;;;;;10.95;100.00;100432.41;5017966;28;20489;-74
2023/11/14 04:22:03;;;;;;;22.50;4.63;;;;;;;11.03;100.00;100435.69;5016858;28;20204;-72
2023/11/14 04:24:31;;;;;;;22.70;4.20;;;;;;;10.81;100.00;100424.38;5019422;28;20246;-74
2023/11/14 04:26:58;;;;;;;24.53;4.50;;;;;;;10.88;100.00;100436.94;5019497;28;20173;-72
2023/11/14 04:29:24;;;;;;;34.53;5.57;;;;;;;10.71;100.00;100420.50;5016896;28;20497;-74
2023/11/14 04:31:50;;;;;;;28.23;5.23;;;;;;;10.70;100.00;100440.28;5017704;28;20466;-74
2023/11/14 04:34:15;;;;;;;35.40;6.50;;;;;;;10.76;100.00;100464.44;5015632;28;20208;-73
2023/11/14 04:36:41;;;;;;;26.97;5.20;;;;;;;10.83;100.00;100480.53;5014668;28;20684;-72
2023/11/14 04:39:08;;;;;;;30.43;6.43;;;;;;;10.30;100.00;100406.34;5019291;28;20198;-73
2023/11/14 04:41:33;;;;;;;30.27;5.30;;;;;;;10.80;100.00;100521.19;5017359;28;20451;-73
2023/11/14 04:44:01;;;;;;;23.53;4.33;;;;;;;10.23;100.00;100466.28;5017035;28;20477;-72
2023/11/14 04:46:27;;;;;;;26.03;6.00;;;;;;;10.77;100.00;100553.78;5017913;28;20311;-73
2023/11/14 04:48:52;;;;;;;26.57;5.70;;;;;;;10.45;100.00;100531.31;5018659;28;20439;-75
2023/11/14 04:51:18;;;;;;;33.77;5.67;;;;;;;10.71;100.00;100568.03;5019881;28;20516;-74
2023/11/14 04:53:43;;;;;;;24.63;5.17;;;;;;;10.01;100.00;100482.56;5016680;28;20211;-72
2023/11/14 04:56:13;;;;;;;30.63;5.30;;;;;;;10.71;100.00;100605.59;5019829;28;20184;-73
2023/11/14 04:58:38;;;;;;;38.57;7.07;;;;;;;10.45;100.00;100564.31;5017545;28;20192;-74
2023/11/14 05:01:07;;;;;;;41.30;6.30;;;;;;;10.61;100.00;100632.78;5016681;28;20480;-73
2023/11/14 05:03:32;;;;;;;39.13;7.20;;;;;;;10.59;100.00;100629.50;5019316;28;20193;-74
2023/11/14 05:05:59;;;;;;;28.13;6.27;;;;;;;10.72;100.00;100668.94;5014605;28;20427;-74
2023/11/14 05:08:24;;;;;;;32.50;5.97;;;;;;;10.81;100.00;100662.34;5017260;28;20327;-75
2023/11/14 05:10:49;;;;;;;30.17;6.70;;;;;;;10.37;100.00;100605.53;5015739;28;20525;-75
2023/11/14 05:13:15;;;;;;;27.67;5.27;;;;;;;10.73;100.00;100675.94;5018274;28;20609;-75
2023/11/14 05:15:41;;;;;;;27.97;5.90;;;;;;;10.85;100.00;100685.88;5013872;28;20247;-74
2023/11/14 05:18:08;;;;;;;23.20;5.27;;;;;;;10.78;100.00;100668.13;5020027;28;20443;-75
2023/11/14 05:20:33;;;;;;;25.27;5.20;;;;;;;10.83;100.00;100671.03;5014380;28;20280;-74
2023/11/14 05:22:59;;;;;;;28.10;6.13;;;;;;;10.78;100.00;100681.53;5012551;28;20540;-72
2023/11/14 05:25:24;;;;;;;25.33;4.90;;;;;;;10.68;100.00;100665.03;5014310;28;20670;-72
2023/11/14 05:27:50;;;;;;;29.13;5.27;;;;;;;10.87;100.00;100691.03;5014480;28;20184;-74
2023/11/14 05:30:16;;;;;;;38.77;7.20;;;;;;;10.56;100.00;100641.47;5016054;28;20180;-74
2023/11/14 05:32:42;;;;;;;30.67;6.07;;;;;;;10.63;100.00;100653.03;5017468;28;20278;-74
2023/11/14 05:35:08;;;;;;;32.73;5.53;;;;;;;10.77;100.00;100651.19;5017609;28;21050;-74
2023/11/14 05:37:34;;;;;;;32.23;6.53;;;;;;;10.87;100.00;100685.66;5014255;28;20192;-73
2023/11/14 05:40:00;;;;;;;27.87;5.30;;;;;;;10.59;100.00;100627.66;5010685;28;20435;-73
2023/11/14 05:42:25;;;;;;;33.97;6.60;;;;;;;10.22;100.00;100542.38;5015018;28;20514;-74
2023/11/14 05:44:51;;;;;;;34.57;7.40;;;;;;;10.72;100.00;100624.16;5011731;28;20181;-73
2023/11/14 05:47:19;;;;;;;33.00;6.17;;;;;;;10.35;100.00;100564.69;5014523;28;20196;-72
2023/11/14 05:49:45;;;;;;;33.03;5.90;;;;;;;10.92;100.00;100661.75;5018873;28;20180;-72
2023/11/14 05:52:10;;;;;;;28.20;5.57;;;;;;;10.87;100.00;100648.09;5020649;28;20746;-72
2023/11/14 05:54:36;;;;;;;28.93;5.97;;;;;;;10.94;100.00;100665.06;5015938;28;20208;-72
2023/11/14 05:57:02;;;;;;;34.53;6.07;;;;;;;10.69;100.00;100624.56;5023245;28;20181;-74
2023/11/14 05:59:27;;;;;;;30.57;7.17;;;;;;;10.42;100.00;100591.53;5023059;28;20789;-73
2023/11/14 06:01:53;;;;;;;31.33;6.23;;;;;;;10.80;100.00;100639.22;5023513;28;20230;-73
2023/11/14 06:04:21;;;;;;;29.67;6.70;;;;;;;10.95;100.00;100661.31;5022626;28;20243;-74
2023/11/14 06:06:47;;;;;;;29.53;6.23;;;;;;;10.94;100.00;100661.53;5016921;28;20465;-73
2023/11/14 06:09:12;;;;;;;39.73;7.43;;;;;;;10.85;100.00;100664.41;5019854;28;20432;-73
2023/11/14 06:11:38;;;;;;;41.33;7.53;;;;;;;10.61;100.00;100635.47;5019864;28;20470;-73
2023/11/14 06:14:04;;;;;;;29.10;6.87;;;;;;;10.94;100.00;100674.97;5019409;28;20254;-74
2023/11/14 06:16:30;;;;;;;27.83;6.23;;;;;;;10.93;100.00;100675.97;5020581;28;20192;-74
2023/11/14 06:18:55;;;;;;;36.93;6.80;;;;;;;10.52;100.00;100615.25;5024625;28;20181;-73
2023/11/14 06:21:21;;;;;;;37.93;7.43;;;;;;;10.87;100.00;100672.25;5025298;28;20455;-74
2023/11/14 06:23:46;;;;;;;35.00;5.97;;;;;;;10.48;100.00;100608.66;5021541;28;20191;-73
2023/11/14 06:26:11;;;;;;;28.20;6.20;;;;;;;10.89;100.00;100693.53;5022199;28;20382;-74
2023/11/14 06:28:37;;;;;;;31.93;5.87;;;;;;;10.73;100.00;100667.91;5020609;28;20271;-72
2023/11/14 06:31:03;;;;;;;31.30;6.10;;;;;;;10.94;100.00;100710.66;5021455;28;20213;-73
2023/11/14 06:33:34;;;;;;;32.60;6.47;;;;;;;10.84;100.00;100703.00;5020642;28;20299;-74
2023/11/14 06:35:59;;;;;;;36.63;6.77;;;;;;;10.61;100.00;100657.75;5022847;28;20192;-72
2023/11/14 06:38:24;;;;;;;27.23;5.53;;;;;;;10.96;100.00;100711.28;5023929;28;20566;-73
2023/11/14 06:40:50;;;;;;;26.27;5.53;;;;;;;10.69;100.00;100677.38;5020564;28;20188;-73
2023/11/14 06:43:15;;;;;;;26.57;6.10;;;;;;;10.91;100.00;100712.94;5021968;28;20180;-74
2023/11/14 06:45:42;;;;;;;31.23;7.63;;;;;;;10.96;100.00;100705.91;5019473;28;20220;-75
2023/11/14 06:48:07;;;;;;;24.43;5.70;;;;;;;10.49;100.00;100637.13;5019231;28;20268;-73
2023/11/14 06:50:33;;;;;;;28.63;5.90;;;;;;;10.95;100.00;100736.47;5019877;28;20439;-74
2023/11/14 06:52:59;;;;;;;29.17;5.77;;;;;;;10.51;100.00;100680.66;5020108;28;20199;-73
2023/11/14 06:55:24;;;;;;;27.53;6.07;;;;;;;10.89;100.00;100748.00;5018690;28;20439;-73
2023/11/14 06:57:50;;;;;;;29.90;5.73;;;;;;;10.86;100.00;100751.94;5019350;28;20184;-74
2023/11/14 07:00:16;;;;;;;21.90;5.13;;;;;;;10.39;100.00;100672.38;5021414;28;20188;-73
2023/11/14 07:02:45;;;;;;;25.47;6.00;;;;;;;10.65;100.00;100725.25;5018250;28;20465;-73
2023/11/14 07:05:10;;;;;;;32.43;6.60;;;;;;;10.76;100.00;100737.22;5017976;28;20435;-73
2023/11/14 07:07:39;;;;;;;20.87;4.80;;;;;;;10.89;100.00;100731.91;5020339;28;20860;-73
2023/11/14 07:10:06;;;;;;;29.23;5.80;;;;;;;10.91;100.00;100745.16;5021034;28;20188;-73
2023/11/14 07:12:32;;;;;;;28.57;4.97;;;;;;;10.88;100.00;100734.78;5022981;28;20471;-72
2023/11/14 07:14:57;;;;;;;38.20;5.40;;;;;;;10.81;100.00;100695.34;5012558;28;20479;-74
2023/11/14 07:17:23;;;;;;;27.20;6.07;;;;;;;10.74;100.00;100686.47;5017673;28;20682;-75
2023/11/14 07:19:48;;;;;;;25.40;5.07;;;;;;;10.92;100.00;100715.41;5020953;28;20314;-72
2023/11/14 07:22:14;;;;;;;27.70;5.40;;;;;;;10.91;100.00;100715.63;5023086;28;20204;-73
2023/11/14 07:24:39;;;;;;;32.10;6.30;;;;;;;11.02;100.00;100747.19;5014324;28;20586;-74
2023/11/14 07:27:06;;;;;;;29.07;5.20;;;;;;;10.98;100.00;100714.59;5013428;28;20564;-72
2023/11/14 07:29:32;;;;;;;24.80;5.70;;;;;;;10.87;100.00;100707.13;5014628;28;20192;-74
2023/11/14 07:31:58;;;;;;;32.63;6.10;;;;;;;11.03;100.00;100748.88;5017222;28;20462;-73
2023/11/14 07:34:25;;;;;;;29.80;5.87;;;;;;;11.01;100.00;100730.28;5015720;28;20284;-73
2023/11/14 07:36:51;;;;;;;22.80;5.73;;;;;;;10.94;100.00;100724.09;5021369;28;20793;-73
2023/11/14 07:39:17;;;;;;;27.30;6.90;;;;;;;11.00;100.00;100735.88;5019446;28;20463;-74
2023/11/14 07:41:43;;;;;;;35.20;7.00;;;;;;;11.06;100.00;100748.47;5018551;28;20462;-72
2023/11/14 07:44:09;;;;;;;26.30;5.40;;;;;;;11.07;100.00;100736.69;5017405;28;20469;-74
2023/11/14 07:46:37;;;;;;;26.20;5.53;;;;;;;11.07;100.00;100737.50;5019782;28;20189;-73
2023/11/14 07:49:03;;;;;;;29.03;5.63;;;;;;;11.04;100.00;100729.03;5017675;28;20450;-72
2023/11/14 07:51:28;;;;;;;18.30;4.57;;;;;;;10.94;100.00;100724.09;5017588;28;20462;-74
2023/11/14 07:53:55;;;;;;;24.63;5.30;;;;;;;10.92;100.00;100722.63;5017762;28;20208;-75
2023/11/14 07:56:21;;;;;;;23.27;5.60;;;;;;;11.01;100.00;100721.41;5018362;28;20184;-74
2023/11/14 07:58:47;;;;;;;29.70;5.60;;;;;;;10.77;100.00;100690.63;5018847;28;20439;-73
2023/11/14 08:01:13;;;;;;;26.40;5.03;;;;;;;11.04;100.00;100715.63;5010033;28;20463;-74
2023/11/14 08:03:39;;;;;;;20.50;4.93;;;;;;;9.15;100.00;100385.94;5045316;22;20499;-76
2023/11/14 08:06:05;;;;;;;31.07;5.27;;;;;;;9.53;100.00;100463.91;5022728;28;20882;-76
2023/11/14 08:08:30;;;;;;;26.03;5.37;;;;;;;10.19;100.00;100565.88;5024671;28;20180;-74
2023/11/14 08:10:56;;;;;;;21.40;4.30;;;;;;;8.98;100.00;100342.66;5023317;28;20196;-74
2023/11/14 08:13:22;;;;;;;23.70;4.70;;;;;;;9.73;100.00;100474.66;5021408;28;20240;-74
2023/11/14 08:15:47;;;;;;;23.07;5.57;;;;;;;10.28;100.00;100563.88;5022731;28;20188;-74
2023/11/14 08:18:13;;;;;;;28.50;5.27;;;;;;;9.69;100.00;100474.25;5025651;28;20432;-74
2023/11/14 08:20:39;;;;;;;21.83;4.57;;;;;;;10.85;100.00;100669.78;5025810;28;20181;-74
2023/11/14 08:23:04;;;;;;;20.10;5.17;;;;;;;10.10;100.00;100553.69;5022209;28;20281;-74
2023/11/14 08:25:31;;;;;;;28.70;5.17;;;;;;;9.10;100.00;100401.75;5023077;28;20637;-74
2023/11/14 08:27:57;;;;;;;26.07;5.00;;;;;;;9.99;100.00;100564.19;5023154;28;20185;-74
2023/11/14 08:30:27;;;;;;;27.47;5.27;;;;;;;10.08;100.00;100574.50;5023347;28;21054;-74
2023/11/14 08:32:56;;;;;;;23.50;5.33;;;;;;;9.44;100.00;100457.06;5023530;28;20955;-74
2023/11/14 08:35:25;;;;;;;32.57;5.90;;;;;;;9.19;100.00;100420.09;5021688;28;20485;-74
2023/11/14 08:37:53;;;;;;;35.03;6.33;;;;;;;10.00;100.00;100565.81;5021674;28;20930;-74
2023/11/14 08:40:23;;;;;;;31.20;6.30;;;;;;;9.89;100.00;100525.19;5021579;28;20531;-75
2023/11/14 08:42:51;;;;;;;31.13;6.53;;;;;;;9.85;100.00;100526.63;5023742;28;20538;-74
2023/11/14 08:45:17;;;;;;;25.73;5.60;;;;;;;10.04;100.00;100559.88;5022656;28;20463;-74
2023/11/14 08:47:42;;;;;;;36.13;8.70;;;;;;;9.77;100.00;100500.00;5020610;28;20526;-74
2023/11/14 08:50:09;;;;;;;34.07;6.40;;;;;;;9.93;100.00;100547.88;5023652;28;20556;-74
2023/11/14 08:52:35;;;;;;;29.83;5.83;;;;;;;9.28;100.00;100440.31;5022134;28;20637;-74
2023/11/14 08:55:01;;;;;;;26.20;6.30;;;;;;;9.72;100.00;100497.13;5022314;28;20469;-74
2023/11/14 08:57:28;;;;;;;26.67;5.50;;;;;;;10.12;100.00;100597.19;5024323;28;20715;-74
2023/11/14 08:59:55;;;;;;;24.50;4.67;;;;;;;9.61;100.00;100519.13;5024882;28;20609;-74
2023/11/14 09:02:20;;;;;;;31.67;6.20;;;;;;;9.64;100.00;100524.09;5023592;28;20478;-74
2023/11/14 09:04:46;;;;;;;27.47;5.80;;;;;;;9.77;100.00;100544.72;5024575;28;20463;-74
2023/11/14 09:07:12;;;;;;;30.83;5.60;;;;;;;10.08;100.00;100561.09;5022959;28;20311;-74
2023/11/14 09:09:38;;;;;;;25.80;5.10;;;;;;;10.29;100.00;100602.22;5021232;28;20180;-74
2023/11/14 09:12:05;;;;;;;35.13;5.70;;;;;;;10.04;100.00;100514.31;5021463;28;20641;-74
2023/11/14 09:14:31;;;;;;;40.90;6.23;;;;;;;9.47;100.00;100445.97;5021971;28;20479;-74
2023/11/14 09:16:56;;;;;;;28.10;6.30;;;;;;;9.95;100.00;100527.06;5023477;28;20934;-74
2023/11/14 09:19:22;;;;;;;36.37;6.30;;;;;;;9.88;100.00;100487.88;5019007;28;20189;-74
2023/11/14 09:21:48;;;;;;;23.33;5.70;;;;;;;9.50;100.00;100394.69;5034877;28;20258;-74
2023/11/14 09:24:14;;;;;;;37.33;5.83;;;;;;;10.27;100.00;100532.72;5021513;28;20951;-74
2023/11/14 09:26:40;;;;;;;24.37;5.10;;;;;;;10.42;100.00;100529.84;5028253;28;20189;-74
2023/11/14 09:29:06;;;;;;;31.60;6.10;;;;;;;11.08;100.00;100653.28;5024176;28;20625;-74
2023/11/14 09:31:31;;;;;;;24.67;5.27;;;;;;;10.50;100.00;100569.88;5025627;28;20475;-74
2023/11/14 09:33:57;;;;;;;32.40;6.87;;;;;;;9.51;100.00;100404.34;5025372;28;20518;-74
2023/11/14 09:36:22;;;;;;;26.43;5.33;;;;;;;9.70;100.00;100416.16;5026181;28;20192;-74
2023/11/14 09:38:48;;;;;;;31.83;6.40;;;;;;;10.13;100.00;100486.28;5023130;28;20230;-74
2023/11/14 09:41:14;;;;;;;31.60;6.40;;;;;;;9.72;100.00;100420.28;5025284;28;20207;-74
2023/11/14 09:43:40;;;;;;;36.33;6.73;;;;;;;9.62;100.00;100393.06;5024672;28;20255;-75
2023/11/14 09:46:07;;;;;;;20.00;4.70;;;;;;;10.12;100.00;100473.06;5023784;28;20188;-74
2023/11/14 09:48:35;;;;;;;26.20;6.33;;;;;;;9.42;100.00;100352.03;5025626;28;20519;-74
2023/11/14 09:51:01;;;;;;;31.97;6.23;;;;;;;10.10;100.00;100526.91;5026322;28;20807;-74
2023/11/14 09:53:28;;;;;;;33.80;6.77;;;;;;;9.42;100.00;100387.66;5024428;28;20480;-74
2023/11/14 09:55:54;;;;;;;21.90;4.67;;;;;;;10.55;100.00;100598.75;5021488;28;20446;-74
2023/11/14 09:58:23;;;;;;;24.60;5.97;;;;;;;9.83;100.00;100488.47;5023007;28;20442;-74
2023/11/14 10:00:50;;;;;;;22.40;5.17;;;;;;;9.54;100.00;100464.72;5033969;28;20443;-75
2023/11/14 10:03:16;;;;;;;22.77;5.20;;;;;;;9.67;100.00;100559.31;5025183;28;20547;-74
2023/11/14 10:05:42;;;;;;;24.97;5.23;;;;;;;10.40;100.00;100682.88;5026472;28;20919;-74
2023/11/14 10:08:14;;;;;;;35.70;7.50;;;;;;;9.43;100.00;100535.72;5025701;28;20494;-74
2023/11/14 10:10:59;;;;;;;20.90;5.00;;;;;;;9.87;100.00;100606.81;5020287;28;20896;-75
2023/11/14 10:13:25;;;;;;;23.60;5.40;;;;;;;9.62;100.00;100593.91;5021486;28;20474;-75
2023/11/14 10:15:50;;;;;;;28.03;5.33;;;;;;;9.07;100.00;100483.25;5023323;28;21119;-74
2023/11/14 10:18:30;;;;;;;27.47;5.83;;;;;;;10.20;100.00;100692.66;5026794;28;20184;-74
2023/11/14 10:20:56;;;;;;;37.70;6.37;;;;;;;11.04;100.00;100833.72;5023782;28;20473;-74
2023/11/14 10:23:33;;;;;;;24.37;6.70;;;;;;;9.11;100.00;100564.75;5024958;28;20954;-75
2023/11/14 10:26:08;;;;;;;36.70;5.70;;;;;;;9.34;100.00;100649.31;5025460;28;20435;-74
2023/11/14 10:28:34;;;;;;;23.20;4.90;;;;;;;9.50;100.00;100695.38;5025499;28;20517;-74
2023/11/14 10:30:59;;;;;;;27.87;5.10;;;;;;;9.23;100.00;100688.19;5022621;28;20932;-74
2023/11/14 10:33:30;;;;;;;34.07;6.10;;;;;;;10.73;100.00;100944.22;5024537;28;20231;-74
2023/11/14 10:36:08;;;;;;;33.23;5.77;;;;;;;9.73;100.00;100793.41;5041998;28;20196;-75
2023/11/14 10:38:34;;;;;;;23.53;5.60;;;;;;;8.97;100.00;100711.00;5024126;28;20430;-74
2023/11/14 10:40:59;;;;;;;23.40;5.33;;;;;;;8.96;100.00;100767.34;5026109;28;20516;-74
2023/11/14 10:43:32;;;;;;;32.50;5.90;;;;;;;9.80;100.00;100871.13;5024877;28;20450;-74
2023/11/14 10:46:08;;;;;;;24.87;5.40;;;;;;;9.03;100.00;100755.72;5024578;28;20184;-75
2023/11/14 10:48:34;;;;;;;28.13;6.30;;;;;;;9.26;100.00;100805.56;5025350;28;20434;-75
2023/11/14 10:51:02;;;;;;;30.17;5.90;;;;;;;10.79;100.00;101037.34;5025119;28;20447;-74
2023/11/14 10:53:30;;;;;;;25.60;5.20;;;;;;;10.05;100.00;100923.28;5032492;28;20475;-74
2023/11/14 10:55:56;;;;;;;28.63;5.63;;;;;;;10.21;100.00;100959.69;5024483;28;21449;-75
2023/11/14 10:58:22;;;;;;;33.60;6.17;;;;;;;9.22;100.00;100789.03;5023197;28;20486;-75
2023/11/14 11:00:48;;;;;;;21.37;5.20;;;;;;;9.39;100.00;100821.72;5022468;28;20467;-74
2023/11/14 11:03:14;;;;;;;32.07;6.53;;;;;;;10.11;100.00;100954.66;5037925;28;20211;-75
2023/11/14 11:05:39;;;;;;;24.80;5.13;;;;;;;8.99;100.00;100772.31;5023237;28;20436;-74
2023/11/14 11:08:05;;;;;;;32.17;7.60;;;;;;;9.66;100.00;100865.66;5022838;28;20195;-74